<?xml version="1.0" encoding="UTF-8" standalone="no" ?>
<gpx xmlns="http://www.topografix.com/GPX/1/1" xmlns:xsi="http://www.w3.org/2001/XMLSchema-instance" xsi:schemaLocation="http://www.topografix.com/GPX/1/1 http://www.topografix.com/GPX/1/1/gpx.xsd" version="1.1" creator="VisuGPX - https://www.visugpx.com">
  <metadata>
    <name>La 3eme Arche</name>
    <desc><![CDATA[Visite à la 3eme Arche au-dessus du village d\'Archiane, puis montée sur le plateau et redescente par Tussac]]></desc>
  </metadata>
  <trk>
    <name><![CDATA[Treschenu 3eme arche 030612 MBR]]></name>
    <trkseg>
      <trkpt lat="44.74539" lon="5.50678">
        <ele>726</ele>
        <time>2012-06-03T06:38:05Z</time>
      </trkpt>
      <trkpt lat="44.74513" lon="5.50689">
        <ele>766</ele>
        <time>2012-06-03T06:44:26Z</time>
      </trkpt>
      <trkpt lat="44.74501" lon="5.50726">
        <ele>771</ele>
        <time>2012-06-03T06:45:22Z</time>
      </trkpt>
      <trkpt lat="44.74492" lon="5.5075">
        <ele>768</ele>
        <time>2012-06-03T06:46:15Z</time>
      </trkpt>
      <trkpt lat="44.74491" lon="5.50726">
        <ele>769</ele>
        <time>2012-06-03T06:46:54Z</time>
      </trkpt>
      <trkpt lat="44.74502" lon="5.5076">
        <ele>773</ele>
        <time>2012-06-03T06:47:38Z</time>
      </trkpt>
      <trkpt lat="44.74502" lon="5.50819">
        <ele>780</ele>
        <time>2012-06-03T06:48:36Z</time>
      </trkpt>
      <trkpt lat="44.74483" lon="5.50851">
        <ele>788</ele>
        <time>2012-06-03T06:49:48Z</time>
      </trkpt>
      <trkpt lat="44.74499" lon="5.5087">
        <ele>798</ele>
        <time>2012-06-03T06:50:56Z</time>
      </trkpt>
      <trkpt lat="44.74527" lon="5.50861">
        <ele>805</ele>
        <time>2012-06-03T06:51:59Z</time>
      </trkpt>
      <trkpt lat="44.74579" lon="5.50877">
        <ele>811</ele>
        <time>2012-06-03T06:53:14Z</time>
      </trkpt>
      <trkpt lat="44.74584" lon="5.50882">
        <ele>827</ele>
        <time>2012-06-03T06:55:13Z</time>
      </trkpt>
      <trkpt lat="44.74592" lon="5.50892">
        <ele>849</ele>
        <time>2012-06-03T06:57:39Z</time>
      </trkpt>
      <trkpt lat="44.74613" lon="5.5094">
        <ele>865</ele>
        <time>2012-06-03T06:59:56Z</time>
      </trkpt>
      <trkpt lat="44.74614" lon="5.50947">
        <ele>885</ele>
        <time>2012-06-03T07:01:58Z</time>
      </trkpt>
      <trkpt lat="44.74619" lon="5.50957">
        <ele>906</ele>
        <time>2012-06-03T07:05:09Z</time>
      </trkpt>
      <trkpt lat="44.74697" lon="5.51055">
        <ele>905</ele>
        <time>2012-06-03T07:06:03Z</time>
      </trkpt>
      <trkpt lat="44.74755" lon="5.51077">
        <ele>906</ele>
        <time>2012-06-03T07:06:48Z</time>
      </trkpt>
      <trkpt lat="44.74793" lon="5.5109">
        <ele>908</ele>
        <time>2012-06-03T07:07:33Z</time>
      </trkpt>
      <trkpt lat="44.74833" lon="5.51085">
        <ele>910</ele>
        <time>2012-06-03T07:08:17Z</time>
      </trkpt>
      <trkpt lat="44.74877" lon="5.51088">
        <ele>913</ele>
        <time>2012-06-03T07:09:01Z</time>
      </trkpt>
      <trkpt lat="44.74924" lon="5.51094">
        <ele>915</ele>
        <time>2012-06-03T07:09:42Z</time>
      </trkpt>
      <trkpt lat="44.74966" lon="5.51111">
        <ele>918</ele>
        <time>2012-06-03T07:10:52Z</time>
      </trkpt>
      <trkpt lat="44.74989" lon="5.51122">
        <ele>932</ele>
        <time>2012-06-03T07:13:18Z</time>
      </trkpt>
      <trkpt lat="44.74992" lon="5.51129">
        <ele>968</ele>
        <time>2012-06-03T07:18:05Z</time>
      </trkpt>
      <trkpt lat="44.74997" lon="5.51144">
        <ele>1000</ele>
        <time>2012-06-03T07:22:03Z</time>
      </trkpt>
      <trkpt lat="44.75003" lon="5.5117">
        <ele>1033</ele>
        <time>2012-06-03T07:29:11Z</time>
      </trkpt>
      <trkpt lat="44.75011" lon="5.51182">
        <ele>1050</ele>
        <time>2012-06-03T07:32:12Z</time>
      </trkpt>
      <trkpt lat="44.75025" lon="5.5124">
        <ele>1068</ele>
        <time>2012-06-03T07:34:58Z</time>
      </trkpt>
      <trkpt lat="44.75084" lon="5.51377">
        <ele>1087</ele>
        <time>2012-06-03T07:40:17Z</time>
      </trkpt>
      <trkpt lat="44.75168" lon="5.5148">
        <ele>1108</ele>
        <time>2012-06-03T07:43:18Z</time>
      </trkpt>
      <trkpt lat="44.75183" lon="5.51517">
        <ele>1131</ele>
        <time>2012-06-03T07:46:43Z</time>
      </trkpt>
      <trkpt lat="44.7521" lon="5.51541">
        <ele>1154</ele>
        <time>2012-06-03T07:52:00Z</time>
      </trkpt>
      <trkpt lat="44.75237" lon="5.51549">
        <ele>1175</ele>
        <time>2012-06-03T07:59:27Z</time>
      </trkpt>
      <trkpt lat="44.75281" lon="5.51581">
        <ele>1197</ele>
        <time>2012-06-03T08:04:24Z</time>
      </trkpt>
      <trkpt lat="44.75306" lon="5.51541">
        <ele>1199</ele>
        <time>2012-06-03T08:06:35Z</time>
      </trkpt>
      <trkpt lat="44.75346" lon="5.5155">
        <ele>1219</ele>
        <time>2012-06-03T08:11:07Z</time>
      </trkpt>
      <trkpt lat="44.75395" lon="5.51535">
        <ele>1232</ele>
        <time>2012-06-03T08:15:44Z</time>
      </trkpt>
      <trkpt lat="44.75441" lon="5.51517">
        <ele>1248</ele>
        <time>2012-06-03T08:19:39Z</time>
      </trkpt>
      <trkpt lat="44.75486" lon="5.51502">
        <ele>1271</ele>
        <time>2012-06-03T08:23:27Z</time>
      </trkpt>
      <trkpt lat="44.75521" lon="5.51536">
        <ele>1300</ele>
        <time>2012-06-03T08:28:47Z</time>
      </trkpt>
      <trkpt lat="44.75531" lon="5.51579">
        <ele>1337</ele>
        <time>2012-06-03T08:35:10Z</time>
      </trkpt>
      <trkpt lat="44.75528" lon="5.51591">
        <ele>1359</ele>
        <time>2012-06-03T08:39:21Z</time>
      </trkpt>
      <trkpt lat="44.75522" lon="5.51595">
        <ele>1371</ele>
        <time>2012-06-03T08:42:33Z</time>
      </trkpt>
      <trkpt lat="44.75495" lon="5.51596">
        <ele>1373</ele>
        <time>2012-06-03T08:46:29Z</time>
      </trkpt>
      <trkpt lat="44.75482" lon="5.516">
        <ele>1375</ele>
        <time>2012-06-03T09:00:48Z</time>
      </trkpt>
      <trkpt lat="44.75485" lon="5.51596">
        <ele>1375</ele>
        <time>2012-06-03T09:02:24Z</time>
      </trkpt>
      <trkpt lat="44.75486" lon="5.516">
        <ele>1382</ele>
        <time>2012-06-03T09:05:38Z</time>
      </trkpt>
      <trkpt lat="44.75494" lon="5.51636">
        <ele>1402</ele>
        <time>2012-06-03T09:08:31Z</time>
      </trkpt>
      <trkpt lat="44.75459" lon="5.51699">
        <ele>1427</ele>
        <time>2012-06-03T09:12:37Z</time>
      </trkpt>
      <trkpt lat="44.75411" lon="5.51696">
        <ele>1435</ele>
        <time>2012-06-03T09:14:07Z</time>
      </trkpt>
      <trkpt lat="44.75381" lon="5.51726">
        <ele>1438</ele>
        <time>2012-06-03T09:16:17Z</time>
      </trkpt>
      <trkpt lat="44.75345" lon="5.51735">
        <ele>1442</ele>
        <time>2012-06-03T09:22:36Z</time>
      </trkpt>
      <trkpt lat="44.75318" lon="5.51773">
        <ele>1453</ele>
        <time>2012-06-03T09:24:48Z</time>
      </trkpt>
      <trkpt lat="44.75296" lon="5.51826">
        <ele>1466</ele>
        <time>2012-06-03T09:26:24Z</time>
      </trkpt>
      <trkpt lat="44.75293" lon="5.51861">
        <ele>1468</ele>
        <time>2012-06-03T09:28:45Z</time>
      </trkpt>
      <trkpt lat="44.75297" lon="5.51904">
        <ele>1472</ele>
        <time>2012-06-03T09:30:51Z</time>
      </trkpt>
      <trkpt lat="44.75303" lon="5.51954">
        <ele>1494</ele>
        <time>2012-06-03T09:35:31Z</time>
      </trkpt>
      <trkpt lat="44.75328" lon="5.51977">
        <ele>1515</ele>
        <time>2012-06-03T09:47:00Z</time>
      </trkpt>
      <trkpt lat="44.75351" lon="5.52009">
        <ele>1544</ele>
        <time>2012-06-03T09:50:35Z</time>
      </trkpt>
      <trkpt lat="44.7538" lon="5.52042">
        <ele>1570</ele>
        <time>2012-06-03T09:54:28Z</time>
      </trkpt>
      <trkpt lat="44.75394" lon="5.5206">
        <ele>1594</ele>
        <time>2012-06-03T09:57:43Z</time>
      </trkpt>
      <trkpt lat="44.75412" lon="5.5209">
        <ele>1618</ele>
        <time>2012-06-03T10:01:42Z</time>
      </trkpt>
      <trkpt lat="44.75444" lon="5.5216">
        <ele>1640</ele>
        <time>2012-06-03T10:04:47Z</time>
      </trkpt>
      <trkpt lat="44.75463" lon="5.5219">
        <ele>1641</ele>
        <time>2012-06-03T10:13:34Z</time>
      </trkpt>
      <trkpt lat="44.75459" lon="5.52222">
        <ele>1643</ele>
        <time>2012-06-03T10:34:10Z</time>
      </trkpt>
      <trkpt lat="44.75445" lon="5.52276">
        <ele>1645</ele>
        <time>2012-06-03T10:34:43Z</time>
      </trkpt>
      <trkpt lat="44.75439" lon="5.5233">
        <ele>1647</ele>
        <time>2012-06-03T10:35:19Z</time>
      </trkpt>
      <trkpt lat="44.7542" lon="5.52389">
        <ele>1652</ele>
        <time>2012-06-03T10:36:05Z</time>
      </trkpt>
      <trkpt lat="44.75402" lon="5.52456">
        <ele>1660</ele>
        <time>2012-06-03T10:36:56Z</time>
      </trkpt>
      <trkpt lat="44.7539" lon="5.52509">
        <ele>1662</ele>
        <time>2012-06-03T10:37:30Z</time>
      </trkpt>
      <trkpt lat="44.75381" lon="5.52563">
        <ele>1660</ele>
        <time>2012-06-03T10:38:02Z</time>
      </trkpt>
      <trkpt lat="44.75368" lon="5.52617">
        <ele>1656</ele>
        <time>2012-06-03T10:38:33Z</time>
      </trkpt>
      <trkpt lat="44.75361" lon="5.52668">
        <ele>1650</ele>
        <time>2012-06-03T10:39:04Z</time>
      </trkpt>
      <trkpt lat="44.75341" lon="5.52711">
        <ele>1638</ele>
        <time>2012-06-03T10:39:41Z</time>
      </trkpt>
      <trkpt lat="44.75308" lon="5.52749">
        <ele>1634</ele>
        <time>2012-06-03T10:40:18Z</time>
      </trkpt>
      <trkpt lat="44.75294" lon="5.52801">
        <ele>1629</ele>
        <time>2012-06-03T10:40:50Z</time>
      </trkpt>
      <trkpt lat="44.75275" lon="5.52848">
        <ele>1625</ele>
        <time>2012-06-03T10:41:22Z</time>
      </trkpt>
      <trkpt lat="44.7526" lon="5.52896">
        <ele>1624</ele>
        <time>2012-06-03T10:42:15Z</time>
      </trkpt>
      <trkpt lat="44.75258" lon="5.52954">
        <ele>1623</ele>
        <time>2012-06-03T10:42:47Z</time>
      </trkpt>
      <trkpt lat="44.75239" lon="5.53002">
        <ele>1622</ele>
        <time>2012-06-03T10:43:59Z</time>
      </trkpt>
      <trkpt lat="44.75218" lon="5.53054">
        <ele>1622</ele>
        <time>2012-06-03T10:44:36Z</time>
      </trkpt>
      <trkpt lat="44.75212" lon="5.53116">
        <ele>1621</ele>
        <time>2012-06-03T10:45:11Z</time>
      </trkpt>
      <trkpt lat="44.75202" lon="5.5317">
        <ele>1616</ele>
        <time>2012-06-03T10:45:47Z</time>
      </trkpt>
      <trkpt lat="44.75164" lon="5.53163">
        <ele>1613</ele>
        <time>2012-06-03T10:46:20Z</time>
      </trkpt>
      <trkpt lat="44.75136" lon="5.53124">
        <ele>1612</ele>
        <time>2012-06-03T10:46:52Z</time>
      </trkpt>
      <trkpt lat="44.75116" lon="5.53071">
        <ele>1608</ele>
        <time>2012-06-03T10:47:29Z</time>
      </trkpt>
      <trkpt lat="44.75095" lon="5.53019">
        <ele>1602</ele>
        <time>2012-06-03T10:48:07Z</time>
      </trkpt>
      <trkpt lat="44.7508" lon="5.52967">
        <ele>1601</ele>
        <time>2012-06-03T10:48:41Z</time>
      </trkpt>
      <trkpt lat="44.75079" lon="5.5291">
        <ele>1599</ele>
        <time>2012-06-03T10:49:14Z</time>
      </trkpt>
      <trkpt lat="44.75064" lon="5.52861">
        <ele>1598</ele>
        <time>2012-06-03T10:49:46Z</time>
      </trkpt>
      <trkpt lat="44.75042" lon="5.52819">
        <ele>1596</ele>
        <time>2012-06-03T10:50:45Z</time>
      </trkpt>
      <trkpt lat="44.75018" lon="5.52779">
        <ele>1596</ele>
        <time>2012-06-03T10:51:14Z</time>
      </trkpt>
      <trkpt lat="44.75007" lon="5.52729">
        <ele>1597</ele>
        <time>2012-06-03T10:51:45Z</time>
      </trkpt>
      <trkpt lat="44.74995" lon="5.52678">
        <ele>1599</ele>
        <time>2012-06-03T10:52:15Z</time>
      </trkpt>
      <trkpt lat="44.74981" lon="5.52631">
        <ele>1600</ele>
        <time>2012-06-03T10:52:46Z</time>
      </trkpt>
      <trkpt lat="44.74967" lon="5.52581">
        <ele>1602</ele>
        <time>2012-06-03T10:53:18Z</time>
      </trkpt>
      <trkpt lat="44.7495" lon="5.52532">
        <ele>1605</ele>
        <time>2012-06-03T10:53:52Z</time>
      </trkpt>
      <trkpt lat="44.74928" lon="5.52489">
        <ele>1608</ele>
        <time>2012-06-03T10:54:28Z</time>
      </trkpt>
      <trkpt lat="44.74904" lon="5.52446">
        <ele>1612</ele>
        <time>2012-06-03T10:55:07Z</time>
      </trkpt>
      <trkpt lat="44.74877" lon="5.52406">
        <ele>1617</ele>
        <time>2012-06-03T10:55:44Z</time>
      </trkpt>
      <trkpt lat="44.74859" lon="5.5236">
        <ele>1619</ele>
        <time>2012-06-03T10:56:20Z</time>
      </trkpt>
      <trkpt lat="44.74845" lon="5.52311">
        <ele>1621</ele>
        <time>2012-06-03T10:56:57Z</time>
      </trkpt>
      <trkpt lat="44.74838" lon="5.52253">
        <ele>1623</ele>
        <time>2012-06-03T10:57:33Z</time>
      </trkpt>
      <trkpt lat="44.74815" lon="5.52211">
        <ele>1625</ele>
        <time>2012-06-03T10:58:06Z</time>
      </trkpt>
      <trkpt lat="44.74782" lon="5.52181">
        <ele>1631</ele>
        <time>2012-06-03T10:58:52Z</time>
      </trkpt>
      <trkpt lat="44.74756" lon="5.52135">
        <ele>1638</ele>
        <time>2012-06-03T10:59:55Z</time>
      </trkpt>
      <trkpt lat="44.74718" lon="5.52133">
        <ele>1641</ele>
        <time>2012-06-03T11:01:26Z</time>
      </trkpt>
      <trkpt lat="44.7468" lon="5.52158">
        <ele>1638</ele>
        <time>2012-06-03T11:02:27Z</time>
      </trkpt>
      <trkpt lat="44.74673" lon="5.52191">
        <ele>1635</ele>
        <time>2012-06-03T11:03:59Z</time>
      </trkpt>
      <trkpt lat="44.7468" lon="5.5224">
        <ele>1636</ele>
        <time>2012-06-03T11:04:42Z</time>
      </trkpt>
      <trkpt lat="44.74653" lon="5.52262">
        <ele>1626</ele>
        <time>2012-06-03T11:05:34Z</time>
      </trkpt>
      <trkpt lat="44.74618" lon="5.52283">
        <ele>1614</ele>
        <time>2012-06-03T11:06:23Z</time>
      </trkpt>
      <trkpt lat="44.74587" lon="5.52293">
        <ele>1613</ele>
        <time>2012-06-03T11:07:05Z</time>
      </trkpt>
      <trkpt lat="44.74554" lon="5.52305">
        <ele>1604</ele>
        <time>2012-06-03T11:08:06Z</time>
      </trkpt>
      <trkpt lat="44.7452" lon="5.52329">
        <ele>1596</ele>
        <time>2012-06-03T11:08:45Z</time>
      </trkpt>
      <trkpt lat="44.74511" lon="5.52384">
        <ele>1593</ele>
        <time>2012-06-03T11:09:16Z</time>
      </trkpt>
      <trkpt lat="44.74482" lon="5.52423">
        <ele>1588</ele>
        <time>2012-06-03T11:09:46Z</time>
      </trkpt>
      <trkpt lat="44.74453" lon="5.52452">
        <ele>1582</ele>
        <time>2012-06-03T11:10:15Z</time>
      </trkpt>
      <trkpt lat="44.74438" lon="5.52501">
        <ele>1577</ele>
        <time>2012-06-03T11:10:47Z</time>
      </trkpt>
      <trkpt lat="44.74437" lon="5.52555">
        <ele>1573</ele>
        <time>2012-06-03T11:11:17Z</time>
      </trkpt>
      <trkpt lat="44.74432" lon="5.52608">
        <ele>1572</ele>
        <time>2012-06-03T11:11:47Z</time>
      </trkpt>
      <trkpt lat="44.74433" lon="5.52662">
        <ele>1570</ele>
        <time>2012-06-03T11:12:16Z</time>
      </trkpt>
      <trkpt lat="44.74436" lon="5.52715">
        <ele>1566</ele>
        <time>2012-06-03T11:12:46Z</time>
      </trkpt>
      <trkpt lat="44.74437" lon="5.52767">
        <ele>1564</ele>
        <time>2012-06-03T11:13:15Z</time>
      </trkpt>
      <trkpt lat="44.74432" lon="5.52819">
        <ele>1561</ele>
        <time>2012-06-03T11:13:46Z</time>
      </trkpt>
      <trkpt lat="44.74431" lon="5.52871">
        <ele>1558</ele>
        <time>2012-06-03T11:14:18Z</time>
      </trkpt>
      <trkpt lat="44.74424" lon="5.52921">
        <ele>1557</ele>
        <time>2012-06-03T11:14:47Z</time>
      </trkpt>
      <trkpt lat="44.74411" lon="5.5297">
        <ele>1554</ele>
        <time>2012-06-03T11:15:16Z</time>
      </trkpt>
      <trkpt lat="44.74383" lon="5.53005">
        <ele>1553</ele>
        <time>2012-06-03T11:15:45Z</time>
      </trkpt>
      <trkpt lat="44.74351" lon="5.53033">
        <ele>1552</ele>
        <time>2012-06-03T11:16:16Z</time>
      </trkpt>
      <trkpt lat="44.74315" lon="5.53037">
        <ele>1554</ele>
        <time>2012-06-03T11:16:47Z</time>
      </trkpt>
      <trkpt lat="44.74278" lon="5.53042">
        <ele>1556</ele>
        <time>2012-06-03T11:17:20Z</time>
      </trkpt>
      <trkpt lat="44.74246" lon="5.53077">
        <ele>1558</ele>
        <time>2012-06-03T11:17:55Z</time>
      </trkpt>
      <trkpt lat="44.74211" lon="5.53087">
        <ele>1561</ele>
        <time>2012-06-03T11:18:28Z</time>
      </trkpt>
      <trkpt lat="44.74175" lon="5.53097">
        <ele>1561</ele>
        <time>2012-06-03T11:20:43Z</time>
      </trkpt>
      <trkpt lat="44.74136" lon="5.53106">
        <ele>1556</ele>
        <time>2012-06-03T11:21:17Z</time>
      </trkpt>
      <trkpt lat="44.74141" lon="5.53119">
        <ele>1550</ele>
        <time>2012-06-03T11:21:50Z</time>
      </trkpt>
      <trkpt lat="44.74158" lon="5.53132">
        <ele>1544</ele>
        <time>2012-06-03T11:22:21Z</time>
      </trkpt>
      <trkpt lat="44.74135" lon="5.53174">
        <ele>1539</ele>
        <time>2012-06-03T11:22:51Z</time>
      </trkpt>
      <trkpt lat="44.741" lon="5.53192">
        <ele>1532</ele>
        <time>2012-06-03T11:23:27Z</time>
      </trkpt>
      <trkpt lat="44.74065" lon="5.53181">
        <ele>1522</ele>
        <time>2012-06-03T11:24:08Z</time>
      </trkpt>
      <trkpt lat="44.74041" lon="5.53131">
        <ele>1516</ele>
        <time>2012-06-03T11:24:41Z</time>
      </trkpt>
      <trkpt lat="44.74003" lon="5.5311">
        <ele>1512</ele>
        <time>2012-06-03T11:25:14Z</time>
      </trkpt>
      <trkpt lat="44.73962" lon="5.53097">
        <ele>1506</ele>
        <time>2012-06-03T11:25:49Z</time>
      </trkpt>
      <trkpt lat="44.73918" lon="5.53099">
        <ele>1500</ele>
        <time>2012-06-03T11:26:25Z</time>
      </trkpt>
      <trkpt lat="44.73876" lon="5.53107">
        <ele>1492</ele>
        <time>2012-06-03T11:27:01Z</time>
      </trkpt>
      <trkpt lat="44.73832" lon="5.53118">
        <ele>1484</ele>
        <time>2012-06-03T11:27:39Z</time>
      </trkpt>
      <trkpt lat="44.73785" lon="5.53136">
        <ele>1475</ele>
        <time>2012-06-03T11:28:20Z</time>
      </trkpt>
      <trkpt lat="44.73746" lon="5.5316">
        <ele>1464</ele>
        <time>2012-06-03T11:28:54Z</time>
      </trkpt>
      <trkpt lat="44.7371" lon="5.5319">
        <ele>1458</ele>
        <time>2012-06-03T11:29:25Z</time>
      </trkpt>
      <trkpt lat="44.73735" lon="5.53214">
        <ele>1453</ele>
        <time>2012-06-03T11:30:00Z</time>
      </trkpt>
      <trkpt lat="44.73778" lon="5.53227">
        <ele>1443</ele>
        <time>2012-06-03T11:30:37Z</time>
      </trkpt>
      <trkpt lat="44.7382" lon="5.53222">
        <ele>1433</ele>
        <time>2012-06-03T11:31:14Z</time>
      </trkpt>
      <trkpt lat="44.73862" lon="5.53235">
        <ele>1428</ele>
        <time>2012-06-03T11:31:47Z</time>
      </trkpt>
      <trkpt lat="44.73897" lon="5.5326">
        <ele>1420</ele>
        <time>2012-06-03T11:32:19Z</time>
      </trkpt>
      <trkpt lat="44.73931" lon="5.53295">
        <ele>1413</ele>
        <time>2012-06-03T11:32:52Z</time>
      </trkpt>
      <trkpt lat="44.73961" lon="5.53333">
        <ele>1406</ele>
        <time>2012-06-03T11:33:25Z</time>
      </trkpt>
      <trkpt lat="44.73972" lon="5.53368">
        <ele>1400</ele>
        <time>2012-06-03T11:33:55Z</time>
      </trkpt>
      <trkpt lat="44.73934" lon="5.53354">
        <ele>1393</ele>
        <time>2012-06-03T11:34:31Z</time>
      </trkpt>
      <trkpt lat="44.73893" lon="5.53353">
        <ele>1385</ele>
        <time>2012-06-03T11:35:19Z</time>
      </trkpt>
      <trkpt lat="44.73856" lon="5.53364">
        <ele>1375</ele>
        <time>2012-06-03T11:36:08Z</time>
      </trkpt>
      <trkpt lat="44.73814" lon="5.53387">
        <ele>1364</ele>
        <time>2012-06-03T11:36:50Z</time>
      </trkpt>
      <trkpt lat="44.73774" lon="5.53415">
        <ele>1354</ele>
        <time>2012-06-03T11:37:32Z</time>
      </trkpt>
      <trkpt lat="44.7372" lon="5.53435">
        <ele>1347</ele>
        <time>2012-06-03T11:38:14Z</time>
      </trkpt>
      <trkpt lat="44.7368" lon="5.53453">
        <ele>1340</ele>
        <time>2012-06-03T11:38:49Z</time>
      </trkpt>
      <trkpt lat="44.73639" lon="5.53464">
        <ele>1334</ele>
        <time>2012-06-03T11:39:22Z</time>
      </trkpt>
      <trkpt lat="44.73609" lon="5.53463">
        <ele>1331</ele>
        <time>2012-06-03T11:47:40Z</time>
      </trkpt>
      <trkpt lat="44.73564" lon="5.53444">
        <ele>1319</ele>
        <time>2012-06-03T11:48:22Z</time>
      </trkpt>
      <trkpt lat="44.73538" lon="5.53439">
        <ele>1313</ele>
        <time>2012-06-03T11:49:02Z</time>
      </trkpt>
      <trkpt lat="44.73502" lon="5.53446">
        <ele>1302</ele>
        <time>2012-06-03T11:49:40Z</time>
      </trkpt>
      <trkpt lat="44.73469" lon="5.53449">
        <ele>1290</ele>
        <time>2012-06-03T11:50:23Z</time>
      </trkpt>
      <trkpt lat="44.73432" lon="5.53443">
        <ele>1275</ele>
        <time>2012-06-03T11:51:10Z</time>
      </trkpt>
      <trkpt lat="44.73392" lon="5.53432">
        <ele>1262</ele>
        <time>2012-06-03T11:52:12Z</time>
      </trkpt>
      <trkpt lat="44.73357" lon="5.53381">
        <ele>1253</ele>
        <time>2012-06-03T11:53:07Z</time>
      </trkpt>
      <trkpt lat="44.73327" lon="5.5333">
        <ele>1246</ele>
        <time>2012-06-03T12:01:22Z</time>
      </trkpt>
      <trkpt lat="44.73317" lon="5.53278">
        <ele>1241</ele>
        <time>2012-06-03T12:04:29Z</time>
      </trkpt>
      <trkpt lat="44.7329" lon="5.53238">
        <ele>1226</ele>
        <time>2012-06-03T12:05:01Z</time>
      </trkpt>
      <trkpt lat="44.73256" lon="5.53261">
        <ele>1212</ele>
        <time>2012-06-03T12:05:37Z</time>
      </trkpt>
      <trkpt lat="44.73218" lon="5.53279">
        <ele>1198</ele>
        <time>2012-06-03T12:06:21Z</time>
      </trkpt>
      <trkpt lat="44.73194" lon="5.53234">
        <ele>1189</ele>
        <time>2012-06-03T12:07:04Z</time>
      </trkpt>
      <trkpt lat="44.73167" lon="5.53183">
        <ele>1178</ele>
        <time>2012-06-03T12:07:48Z</time>
      </trkpt>
      <trkpt lat="44.73182" lon="5.53125">
        <ele>1173</ele>
        <time>2012-06-03T12:08:26Z</time>
      </trkpt>
      <trkpt lat="44.73166" lon="5.53121">
        <ele>1169</ele>
        <time>2012-06-03T12:09:06Z</time>
      </trkpt>
      <trkpt lat="44.73134" lon="5.53153">
        <ele>1160</ele>
        <time>2012-06-03T12:09:41Z</time>
      </trkpt>
      <trkpt lat="44.73139" lon="5.53101">
        <ele>1155</ele>
        <time>2012-06-03T12:10:19Z</time>
      </trkpt>
      <trkpt lat="44.73125" lon="5.53084">
        <ele>1147</ele>
        <time>2012-06-03T12:10:58Z</time>
      </trkpt>
      <trkpt lat="44.73094" lon="5.53114">
        <ele>1141</ele>
        <time>2012-06-03T12:11:29Z</time>
      </trkpt>
      <trkpt lat="44.73057" lon="5.53144">
        <ele>1133</ele>
        <time>2012-06-03T12:12:13Z</time>
      </trkpt>
      <trkpt lat="44.73024" lon="5.53175">
        <ele>1126</ele>
        <time>2012-06-03T12:12:48Z</time>
      </trkpt>
      <trkpt lat="44.72992" lon="5.53207">
        <ele>1122</ele>
        <time>2012-06-03T12:13:22Z</time>
      </trkpt>
      <trkpt lat="44.72952" lon="5.53227">
        <ele>1114</ele>
        <time>2012-06-03T12:14:02Z</time>
      </trkpt>
      <trkpt lat="44.72919" lon="5.5319">
        <ele>1105</ele>
        <time>2012-06-03T12:14:47Z</time>
      </trkpt>
      <trkpt lat="44.7294" lon="5.53146">
        <ele>1107</ele>
        <time>2012-06-03T12:15:35Z</time>
      </trkpt>
      <trkpt lat="44.72973" lon="5.53106">
        <ele>1108</ele>
        <time>2012-06-03T12:16:11Z</time>
      </trkpt>
      <trkpt lat="44.73011" lon="5.53077">
        <ele>1109</ele>
        <time>2012-06-03T12:16:49Z</time>
      </trkpt>
      <trkpt lat="44.73045" lon="5.53044">
        <ele>1110</ele>
        <time>2012-06-03T12:18:22Z</time>
      </trkpt>
      <trkpt lat="44.73064" lon="5.52992">
        <ele>1100</ele>
        <time>2012-06-03T12:18:54Z</time>
      </trkpt>
      <trkpt lat="44.73073" lon="5.52937">
        <ele>1094</ele>
        <time>2012-06-03T12:19:27Z</time>
      </trkpt>
      <trkpt lat="44.73063" lon="5.52875">
        <ele>1088</ele>
        <time>2012-06-03T12:20:03Z</time>
      </trkpt>
      <trkpt lat="44.73078" lon="5.52823">
        <ele>1079</ele>
        <time>2012-06-03T12:20:40Z</time>
      </trkpt>
      <trkpt lat="44.73108" lon="5.5278">
        <ele>1075</ele>
        <time>2012-06-03T12:21:12Z</time>
      </trkpt>
      <trkpt lat="44.73146" lon="5.52756">
        <ele>1074</ele>
        <time>2012-06-03T12:21:46Z</time>
      </trkpt>
      <trkpt lat="44.73166" lon="5.52702">
        <ele>1073</ele>
        <time>2012-06-03T12:22:19Z</time>
      </trkpt>
      <trkpt lat="44.73168" lon="5.5264">
        <ele>1067</ele>
        <time>2012-06-03T12:22:59Z</time>
      </trkpt>
      <trkpt lat="44.73187" lon="5.52581">
        <ele>1067</ele>
        <time>2012-06-03T12:23:40Z</time>
      </trkpt>
      <trkpt lat="44.73203" lon="5.52526">
        <ele>1063</ele>
        <time>2012-06-03T12:24:15Z</time>
      </trkpt>
      <trkpt lat="44.73225" lon="5.52465">
        <ele>1061</ele>
        <time>2012-06-03T12:24:49Z</time>
      </trkpt>
      <trkpt lat="44.73243" lon="5.52416">
        <ele>1058</ele>
        <time>2012-06-03T12:25:23Z</time>
      </trkpt>
      <trkpt lat="44.73278" lon="5.52376">
        <ele>1056</ele>
        <time>2012-06-03T12:26:00Z</time>
      </trkpt>
      <trkpt lat="44.73308" lon="5.52332">
        <ele>1045</ele>
        <time>2012-06-03T12:26:37Z</time>
      </trkpt>
      <trkpt lat="44.73324" lon="5.52268">
        <ele>1035</ele>
        <time>2012-06-03T12:27:13Z</time>
      </trkpt>
      <trkpt lat="44.73335" lon="5.52204">
        <ele>1030</ele>
        <time>2012-06-03T12:27:52Z</time>
      </trkpt>
      <trkpt lat="44.7336" lon="5.52164">
        <ele>1016</ele>
        <time>2012-06-03T12:28:42Z</time>
      </trkpt>
      <trkpt lat="44.7339" lon="5.52125">
        <ele>1007</ele>
        <time>2012-06-03T12:29:22Z</time>
      </trkpt>
      <trkpt lat="44.73423" lon="5.52081">
        <ele>998</ele>
        <time>2012-06-03T12:30:06Z</time>
      </trkpt>
      <trkpt lat="44.73431" lon="5.52007">
        <ele>986</ele>
        <time>2012-06-03T12:30:51Z</time>
      </trkpt>
      <trkpt lat="44.73438" lon="5.51935">
        <ele>973</ele>
        <time>2012-06-03T12:31:36Z</time>
      </trkpt>
      <trkpt lat="44.73461" lon="5.51886">
        <ele>962</ele>
        <time>2012-06-03T12:32:10Z</time>
      </trkpt>
      <trkpt lat="44.73487" lon="5.5184">
        <ele>950</ele>
        <time>2012-06-03T12:32:57Z</time>
      </trkpt>
      <trkpt lat="44.73514" lon="5.51789">
        <ele>938</ele>
        <time>2012-06-03T12:33:31Z</time>
      </trkpt>
      <trkpt lat="44.73545" lon="5.51752">
        <ele>933</ele>
        <time>2012-06-03T12:34:05Z</time>
      </trkpt>
      <trkpt lat="44.73573" lon="5.51708">
        <ele>923</ele>
        <time>2012-06-03T12:34:39Z</time>
      </trkpt>
      <trkpt lat="44.73594" lon="5.51658">
        <ele>914</ele>
        <time>2012-06-03T12:35:16Z</time>
      </trkpt>
      <trkpt lat="44.73586" lon="5.51618">
        <ele>903</ele>
        <time>2012-06-03T12:35:54Z</time>
      </trkpt>
      <trkpt lat="44.73547" lon="5.51633">
        <ele>891</ele>
        <time>2012-06-03T12:36:29Z</time>
      </trkpt>
      <trkpt lat="44.73549" lon="5.51583">
        <ele>877</ele>
        <time>2012-06-03T12:37:12Z</time>
      </trkpt>
      <trkpt lat="44.73571" lon="5.51532">
        <ele>865</ele>
        <time>2012-06-03T12:37:52Z</time>
      </trkpt>
      <trkpt lat="44.73604" lon="5.51493">
        <ele>859</ele>
        <time>2012-06-03T12:38:30Z</time>
      </trkpt>
      <trkpt lat="44.73644" lon="5.51473">
        <ele>848</ele>
        <time>2012-06-03T12:39:09Z</time>
      </trkpt>
      <trkpt lat="44.73682" lon="5.5146">
        <ele>841</ele>
        <time>2012-06-03T12:39:43Z</time>
      </trkpt>
      <trkpt lat="44.73695" lon="5.51411">
        <ele>835</ele>
        <time>2012-06-03T12:40:22Z</time>
      </trkpt>
      <trkpt lat="44.73728" lon="5.51374">
        <ele>830</ele>
        <time>2012-06-03T12:40:58Z</time>
      </trkpt>
      <trkpt lat="44.73758" lon="5.5133">
        <ele>827</ele>
        <time>2012-06-03T12:41:31Z</time>
      </trkpt>
      <trkpt lat="44.73787" lon="5.51288">
        <ele>822</ele>
        <time>2012-06-03T12:42:04Z</time>
      </trkpt>
      <trkpt lat="44.73815" lon="5.51227">
        <ele>818</ele>
        <time>2012-06-03T12:42:36Z</time>
      </trkpt>
      <trkpt lat="44.73849" lon="5.51198">
        <ele>813</ele>
        <time>2012-06-03T12:43:07Z</time>
      </trkpt>
      <trkpt lat="44.73884" lon="5.51173">
        <ele>808</ele>
        <time>2012-06-03T12:44:37Z</time>
      </trkpt>
      <trkpt lat="44.73914" lon="5.51145">
        <ele>803</ele>
        <time>2012-06-03T12:45:06Z</time>
      </trkpt>
      <trkpt lat="44.7394" lon="5.51149">
        <ele>794</ele>
        <time>2012-06-03T12:47:50Z</time>
      </trkpt>
      <trkpt lat="44.73971" lon="5.5113">
        <ele>791</ele>
        <time>2012-06-03T12:48:23Z</time>
      </trkpt>
      <trkpt lat="44.74003" lon="5.51157">
        <ele>788</ele>
        <time>2012-06-03T12:48:53Z</time>
      </trkpt>
      <trkpt lat="44.74006" lon="5.51105">
        <ele>785</ele>
        <time>2012-06-03T12:49:37Z</time>
      </trkpt>
      <trkpt lat="44.74022" lon="5.51054">
        <ele>781</ele>
        <time>2012-06-03T12:50:09Z</time>
      </trkpt>
      <trkpt lat="44.74058" lon="5.5103">
        <ele>774</ele>
        <time>2012-06-03T12:50:39Z</time>
      </trkpt>
      <trkpt lat="44.74093" lon="5.51031">
        <ele>769</ele>
        <time>2012-06-03T12:51:07Z</time>
      </trkpt>
      <trkpt lat="44.74125" lon="5.51017">
        <ele>762</ele>
        <time>2012-06-03T12:51:38Z</time>
      </trkpt>
      <trkpt lat="44.74155" lon="5.50978">
        <ele>752</ele>
        <time>2012-06-03T12:52:08Z</time>
      </trkpt>
      <trkpt lat="44.7418" lon="5.5092">
        <ele>747</ele>
        <time>2012-06-03T12:52:48Z</time>
      </trkpt>
      <trkpt lat="44.74211" lon="5.50886">
        <ele>749</ele>
        <time>2012-06-03T12:53:57Z</time>
      </trkpt>
      <trkpt lat="44.74244" lon="5.50863">
        <ele>750</ele>
        <time>2012-06-03T12:54:31Z</time>
      </trkpt>
      <trkpt lat="44.74281" lon="5.50846">
        <ele>751</ele>
        <time>2012-06-03T12:55:03Z</time>
      </trkpt>
      <trkpt lat="44.74317" lon="5.50833">
        <ele>753</ele>
        <time>2012-06-03T12:55:41Z</time>
      </trkpt>
      <trkpt lat="44.74355" lon="5.50832">
        <ele>753</ele>
        <time>2012-06-03T12:56:13Z</time>
      </trkpt>
      <trkpt lat="44.74391" lon="5.50814">
        <ele>754</ele>
        <time>2012-06-03T12:56:44Z</time>
      </trkpt>
      <trkpt lat="44.74421" lon="5.50778">
        <ele>755</ele>
        <time>2012-06-03T12:57:15Z</time>
      </trkpt>
      <trkpt lat="44.74443" lon="5.50734">
        <ele>755</ele>
        <time>2012-06-03T12:57:45Z</time>
      </trkpt>
      <trkpt lat="44.74463" lon="5.50687">
        <ele>756</ele>
        <time>2012-06-03T12:58:16Z</time>
      </trkpt>
      <trkpt lat="44.74496" lon="5.50661">
        <ele>757</ele>
        <time>2012-06-03T12:58:45Z</time>
      </trkpt>
      <trkpt lat="44.7452" lon="5.50666">
        <ele>759</ele>
        <time>2012-06-03T12:59:15Z</time>
      </trkpt>
      <trkpt lat="44.74524" lon="5.5069">
        <ele>763</ele>
        <time>2012-06-03T12:59:57Z</time>
      </trkpt>
    </trkseg>
  </trk>
</gpx>